Terminal Aerodrome Forecast
Issued by NWS Charleston, WV

Current Version | Previous Version | Text Only | Print | Product List | Glossary Off
Versions: 1 2 3 4 5 6 7 8 9 10 11 12 13 14 15 16 17 18 19 20 21 22 23 24 25 26 27

000
FTUS41 KRLX 200800 AAA
TAFEKN
TAF AMD
KEKN 200832Z 2009/2106 00000KT 2SM BR SCT002 BKN025
      TEMPO 2009/2011 1/4SM FG VV001
     FM201100 00000KT 4SM BR BKN025
     FM201300 00000KT 6SM SHRA BR VCTS BKN015CB
     FM201500 VRB03KT P6SM VCTS BKN015CB
     FM201700 25005KT 6SM SHRA BR VCTS BKN025CB
     FM201900 25004KT P6SM VCTS BKN035CB
     FM210200 00000KT 4SM BR VCTS BKN050CB
     FM210300 00000KT 2SM BR BKN040
     FM210500 00000KT 3/4SM BR BKN001=

USA.gov is the U.S. government's official web portal to all federal, state and local government web resources and services.